Time;durP1;ratioP1;P1;durP2;ratioP2;P2;SDS_P1;SDS_P2;PMS_P1;PMS_P2;Temp;Humidity;BMP_temperature;BMP_pressure;BME280_temperature;BME280_humidity;BME280_pressure;Samples;Min_cycle;Max_cycle;Signal;HPM_P1;HPM_P2
2022/03/17 00:00:10;;;;;;;32.00;18.58;;;11.70;99.90;;;;;;4975006;28;20039;-59
2022/03/17 00:02:37;;;;;;;24.58;16.80;;;11.80;99.90;;;;;;4956084;28;20051;-58
2022/03/17 00:05:04;;;;;;;25.67;16.42;;;11.80;99.90;;;;;;4973492;28;20054;-58
2022/03/17 00:07:30;;;;;;;26.15;17.60;;;;;;;;;;4955612;28;20476;-60
2022/03/17 00:09:57;;;;;;;26.48;17.17;;;11.70;99.90;;;;;;4972748;28;20413;-57
2022/03/17 00:12:23;;;;;;;28.05;17.52;;;11.70;99.90;;;;;;4972822;28;20039;-58
2022/03/17 00:14:51;;;;;;;31.05;17.67;;;11.80;99.90;;;;;;4955832;28;20047;-58
2022/03/17 00:17:16;;;;;;;26.48;17.80;;;11.70;99.90;;;;;;4972876;28;20085;-57
2022/03/17 00:19:42;;;;;;;32.15;18.52;;;11.80;99.90;;;;;;4972588;28;20128;-60
2022/03/17 00:22:08;;;;;;;26.92;18.10;;;;;;;;;;4955373;28;20503;-58
2022/03/17 00:24:36;;;;;;;26.92;18.00;;;11.70;99.90;;;;;;4939375;28;20188;-58
2022/03/17 00:27:02;;;;;;;26.08;17.77;;;11.80;99.90;;;;;;4955189;28;20053;-58
2022/03/17 00:29:27;;;;;;;30.35;17.98;;;11.80;99.90;;;;;;4955299;28;20128;-59
2022/03/17 00:31:53;;;;;;;27.92;17.67;;;11.70;99.90;;;;;;4972429;28;20123;-58
2022/03/17 00:34:19;;;;;;;27.83;16.55;;;11.80;99.90;;;;;;4955144;28;20104;-58
2022/03/17 00:36:47;;;;;;;26.63;17.15;;;11.70;99.90;;;;;;4972116;28;20104;-58
2022/03/17 00:39:14;;;;;;;28.55;18.05;;;11.70;99.90;;;;;;4946456;28;20077;-58
2022/03/17 00:41:42;;;;;;;28.85;16.60;;;11.70;99.90;;;;;;4972158;28;20408;-58
2022/03/17 00:44:07;;;;;;;26.27;16.50;;;11.70;99.90;;;;;;4954687;28;20508;-58
2022/03/17 00:46:33;;;;;;;24.55;16.88;;;11.40;99.90;;;;;;4971773;28;20042;-58
2022/03/17 00:48:59;;;;;;;27.85;17.20;;;11.60;99.90;;;;;;4935448;28;20100;-58
2022/03/17 00:51:25;;;;;;;28.73;17.77;;;;;;;;;;4935617;29;20039;-59
2022/03/17 00:53:51;;;;;;;25.63;17.55;;;11.60;99.90;;;;;;4935592;28;20047;-60
2022/03/17 00:56:16;;;;;;;24.65;16.60;;;11.60;99.90;;;;;;4935455;29;20143;-57
2022/03/17 00:58:45;;;;;;;31.23;18.80;;;11.60;99.90;;;;;;4935360;29;20039;-59
2022/03/17 01:01:13;;;;;;;27.08;16.70;;;11.60;99.90;;;;;;4920233;28;20118;-58
2022/03/17 01:03:39;;;;;;;25.48;15.75;;;11.60;99.90;;;;;;4952511;29;20066;-58
2022/03/17 01:06:05;;;;;;;29.25;17.90;;;11.60;99.90;;;;;;4935630;29;20054;-58
2022/03/17 01:08:30;;;;;;;26.75;16.02;;;11.50;99.90;;;;;;4935287;29;20035;-59
2022/03/17 01:10:56;;;;;;;28.40;18.10;;;11.50;99.90;;;;;;4919423;29;20043;-59
2022/03/17 01:13:22;;;;;;;26.25;16.95;;;;;;;;;;4935168;29;20145;-59
2022/03/17 01:15:48;;;;;;;26.27;19.02;;;11.50;99.90;;;;;;4940556;29;20130;-58
2022/03/17 01:18:14;;;;;;;25.42;16.73;;;11.50;99.90;;;;;;4958982;29;20481;-60
2022/03/17 01:20:41;;;;;;;25.77;17.98;;;11.60;99.90;;;;;;4941230;29;20097;-57
2022/03/17 01:23:07;;;;;;;24.02;16.65;;;11.40;99.90;;;;;;4941518;28;20127;-57
2022/03/17 01:25:33;;;;;;;26.92;18.13;;;11.40;99.90;;;;;;4960213;28;20043;-63
2022/03/17 01:27:59;;;;;;;27.25;17.73;;;11.50;99.90;;;;;;4960186;29;20543;-62
2022/03/17 01:30:24;;;;;;;32.88;18.15;;;11.40;99.90;;;;;;4961011;28;20467;-63
2022/03/17 01:32:50;;;;;;;27.63;18.58;;;11.40;99.90;;;;;;4961651;29;20409;-63
2022/03/17 01:35:16;;;;;;;27.40;17.65;;;11.40;99.90;;;;;;4943724;29;20051;-62
2022/03/17 01:37:41;;;;;;;27.10;18.00;;;11.60;99.90;;;;;;4960639;29;20043;-61
2022/03/17 01:40:09;;;;;;;26.23;17.42;;;11.50;99.90;;;;;;4960425;28;20418;-63
2022/03/17 01:42:35;;;;;;;29.77;18.67;;;11.50;99.90;;;;;;4960396;29;20040;-62
2022/03/17 01:45:01;;;;;;;27.27;17.98;;;11.40;99.90;;;;;;4967907;28;20039;-63
2022/03/17 01:47:27;;;;;;;23.23;17.02;;;11.40;99.90;;;;;;4962352;28;20121;-62
2022/03/17 01:49:53;;;;;;;27.83;19.75;;;;;;;;;;4980024;28;20534;-63
2022/03/17 01:52:18;;;;;;;28.67;18.40;;;11.30;99.90;;;;;;4962827;28;20049;-62
2022/03/17 01:54:44;;;;;;;28.98;18.83;;;11.20;99.90;;;;;;4979362;28;20066;-62
2022/03/17 01:57:10;;;;;;;27.38;18.92;;;11.20;99.90;;;;;;4962125;28;20039;-62
2022/03/17 01:59:37;;;;;;;27.77;19.02;;;11.30;99.90;;;;;;4961372;28;20490;-62
2022/03/17 02:02:12;;;;;;;32.15;20.15;;;11.10;99.90;;;;;;4961179;28;20085;-64
2022/03/17 02:04:40;;;;;;;31.98;20.88;;;11.20;99.90;;;;;;4979596;28;20035;-63
2022/03/17 02:07:06;;;;;;;27.65;18.80;;;11.00;99.90;;;;;;4962204;28;20042;-63
2022/03/17 02:09:34;;;;;;;32.70;20.83;;;11.10;99.90;;;;;;4978795;28;20043;-62
2022/03/17 02:15:00;;;;;;;30.42;19.70;;;11.00;99.90;;;;;;4979121;28;20047;-62
2022/03/17 02:17:30;;;;;;;30.73;19.33;;;10.80;99.90;;;;;;4978674;28;20043;-62
2022/03/17 02:19:56;;;;;;;32.38;20.60;;;10.80;99.90;;;;;;4960368;28;20121;-63
2022/03/17 02:22:23;;;;;;;28.58;19.30;;;;;;;;;;4979504;28;20066;-62
2022/03/17 02:25:34;;;;;;;28.73;20.40;;;10.80;99.90;;;;;;4978879;28;20091;-62
2022/03/17 02:27:41;;;;;;;29.27;20.23;;;10.80;99.90;;;;;;4943464;28;20496;-63
2022/03/17 02:30:09;;;;;;;28.75;19.83;;;10.80;99.90;;;;;;4958645;28;20506;-61
2022/03/17 02:32:35;;;;;;;27.70;20.40;;;;;;;;;;4976254;28;20035;-63
2022/03/17 02:35:09;;;;;;;31.25;21.00;;;11.00;99.90;;;;;;4958528;28;20054;-62
2022/03/17 02:37:35;;;;;;;32.28;21.67;;;10.90;99.90;;;;;;4958438;28;20389;-62
2022/03/17 02:40:01;;;;;;;27.95;18.95;;;11.00;99.90;;;;;;4974592;28;20065;-62
2022/03/17 02:42:30;;;;;;;28.73;21.27;;;11.10;99.90;;;;;;4975341;28;20050;-63
2022/03/17 02:45:00;;;;;;;29.42;20.13;;;11.10;99.90;;;;;;4975365;28;20061;-63
2022/03/17 02:47:26;;;;;;;27.08;19.00;;;11.00;99.90;;;;;;4975666;28;20039;-62
2022/03/17 02:49:55;;;;;;;30.83;21.00;;;11.10;99.90;;;;;;4975636;28;20078;-62
2022/03/17 02:52:22;;;;;;;30.67;21.65;;;11.10;99.90;;;;;;4975566;28;20093;-62
2022/03/17 02:54:48;;;;;;;29.33;20.92;;;;;;;;;;4976211;28;20097;-62
2022/03/17 02:57:14;;;;;;;30.38;21.10;;;11.10;99.90;;;;;;4958524;28;20047;-62
2022/03/17 02:59:39;;;;;;;30.80;21.83;;;11.10;99.90;;;;;;4974513;28;20400;-62
2022/03/17 03:02:05;;;;;;;28.85;19.52;;;;;;;;;;4958566;28;20035;-61
2022/03/17 03:04:34;;;;;;;34.47;23.80;;;11.20;99.90;;;;;;4958925;28;20509;-62
2022/03/17 03:07:03;;;;;;;31.17;20.55;;;11.20;99.90;;;;;;4975424;28;20435;-62
2022/03/17 03:09:29;;;;;;;32.28;24.23;;;11.20;99.90;;;;;;4974592;28;20051;-62
2022/03/17 03:11:55;;;;;;;31.90;22.52;;;11.20;99.90;;;;;;4958158;28;20043;-61
2022/03/17 03:14:21;;;;;;;31.85;21.88;;;11.20;99.90;;;;;;4958252;28;20057;-62
2022/03/17 03:16:47;;;;;;;30.33;22.98;;;11.40;99.90;;;;;;4956012;28;20047;-61
2022/03/17 03:19:13;;;;;;;31.60;23.08;;;11.10;99.90;;;;;;4947064;29;20110;-62
2022/03/17 03:21:39;;;;;;;34.58;22.75;;;11.20;99.90;;;;;;4954875;29;20039;-62
2022/03/17 03:24:04;;;;;;;30.75;22.48;;;11.30;99.90;;;;;;4954906;29;20035;-62
2022/03/17 03:26:30;;;;;;;32.95;23.75;;;11.20;99.90;;;;;;4941266;28;20046;-62
2022/03/17 03:28:56;;;;;;;32.15;22.88;;;11.40;99.90;;;;;;4957176;28;20112;-62
2022/03/17 03:31:22;;;;;;;34.30;24.58;;;11.30;99.90;;;;;;4974041;28;20448;-62
2022/03/17 03:33:48;;;;;;;34.28;23.90;;;;;;;;;;4974090;28;20089;-62
2022/03/17 03:38:58;;;;;;;36.75;24.88;;;11.30;99.90;;;;;;4973972;28;20137;-62
2022/03/17 03:41:24;;;;;;;36.05;26.50;;;;;;;;;;4956559;28;20070;-62
2022/03/17 03:43:49;;;;;;;40.95;26.88;;;11.10;99.90;;;;;;4956129;28;20046;-63
2022/03/17 03:46:15;;;;;;;39.75;28.05;;;;;;;;;;4968181;28;20044;-63
2022/03/17 03:48:41;;;;;;;39.20;28.15;;;10.80;99.90;;;;;;4937563;29;20409;-62
2022/03/17 03:51:07;;;;;;;42.15;28.45;;;10.80;99.90;;;;;;4937056;28;20054;-62
2022/03/17 03:56:17;;;;;;;43.45;29.40;;;10.60;99.90;;;;;;4954501;28;20433;-63
2022/03/17 03:58:43;;;;;;;49.47;30.50;;;10.60;99.90;;;;;;4937021;29;20043;-62
2022/03/17 04:01:08;;;;;;;44.78;29.42;;;10.60;99.90;;;;;;4954550;28;20039;-62
2022/03/17 04:03:34;;;;;;;47.13;29.80;;;;;;;;;;4936925;29;20051;-62
2022/03/17 04:06:00;;;;;;;49.72;31.85;;;10.50;99.90;;;;;;4954529;29;20165;-63
2022/03/17 04:08:25;;;;;;;52.75;33.03;;;10.50;99.90;;;;;;4936990;29;20089;-62
2022/03/17 04:10:51;;;;;;;47.15;32.10;;;10.40;99.90;;;;;;4936490;29;20126;-62
2022/03/17 04:13:17;;;;;;;53.85;33.88;;;;;;;;;;4954187;29;20493;-61
2022/03/17 04:15:43;;;;;;;51.88;32.55;;;;;;;;;;4921110;29;20035;-61
2022/03/17 04:18:09;;;;;;;54.95;34.50;;;;;;;;;;4953603;29;20046;-62
2022/03/17 04:20:35;;;;;;;57.65;33.13;;;10.40;99.90;;;;;;4921651;29;20543;-62
2022/03/17 04:23:00;;;;;;;55.63;35.30;;;10.40;99.90;;;;;;4954354;29;20036;-63
2022/03/17 04:25:26;;;;;;;59.53;36.08;;;10.30;99.90;;;;;;4953932;29;20054;-62
2022/03/17 04:27:51;;;;;;;59.10;35.25;;;10.40;99.90;;;;;;4936330;29;20047;-63
2022/03/17 04:30:17;;;;;;;58.05;35.80;;;10.10;99.90;;;;;;4953691;29;20039;-63
2022/03/17 04:32:43;;;;;;;58.20;36.05;;;;;;;;;;4953870;29;20068;-62
2022/03/17 04:35:09;;;;;;;59.33;36.10;;;10.00;99.90;;;;;;4954354;29;20035;-63
2022/03/17 04:37:35;;;;;;;60.10;35.45;;;10.40;99.90;;;;;;4953421;28;20039;-62
2022/03/17 04:40:02;;;;;;;55.97;33.80;;;10.20;99.90;;;;;;4953653;29;20047;-63
2022/03/17 04:42:28;;;;;;;41.38;25.77;;;10.00;99.90;;;;;;4953841;28;20100;-63
2022/03/17 04:44:55;;;;;;;14.55;9.73;;;9.90;99.90;;;;;;4961436;28;20042;-63
2022/03/17 04:47:21;;;;;;;13.63;9.13;;;;;;;;;;4973064;28;20078;-62
2022/03/17 04:49:47;;;;;;;11.60;8.48;;;9.80;99.90;;;;;;4954824;28;20082;-63
2022/03/17 04:54:57;;;;;;;9.35;7.47;;;9.70;99.90;;;;;;4972899;28;20082;-63
2022/03/17 04:57:24;;;;;;;8.85;7.07;;;;;;;;;;4972828;28;20043;-62
2022/03/17 04:59:51;;;;;;;8.68;6.97;;;9.50;99.90;;;;;;4972696;28;20052;-62
2022/03/17 05:02:17;;;;;;;9.07;7.57;;;;;;;;;;4951803;28;20101;-62
2022/03/17 05:04:42;;;;;;;9.25;6.75;;;9.40;99.90;;;;;;4953519;29;20055;-63
2022/03/17 05:07:08;;;;;;;10.07;6.47;;;;;;;;;;4936351;29;20043;-62
2022/03/17 05:09:34;;;;;;;7.30;6.05;;;;;;;;;;4935614;29;20039;-61
2022/03/17 05:12:00;;;;;;;8.63;6.05;;;9.20;99.90;;;;;;4937679;29;20101;-63
2022/03/17 05:14:25;;;;;;;7.53;5.75;;;9.30;99.90;;;;;;4921287;29;20055;-62
2022/03/17 05:16:51;;;;;;;9.85;6.35;;;9.30;99.90;;;;;;4936903;29;20052;-63
2022/03/17 05:19:17;;;;;;;10.77;5.68;;;;;;;;;;4958267;28;20070;-62
2022/03/17 05:21:44;;;;;;;13.57;8.10;;;9.10;99.90;;;;;;4955050;28;20043;-63
2022/03/17 05:24:10;;;;;;;12.73;6.88;;;9.20;99.90;;;;;;4971875;28;20079;-62
2022/03/17 05:26:35;;;;;;;13.93;8.30;;;9.20;99.90;;;;;;4956449;28;20092;-63
2022/03/17 05:29:01;;;;;;;12.57;7.18;;;9.20;99.90;;;;;;4972211;28;20041;-63
2022/03/17 05:31:26;;;;;;;12.48;7.43;;;9.10;99.90;;;;;;4971032;28;20043;-63
2022/03/17 05:33:52;;;;;;;15.52;7.70;;;9.10;99.90;;;;;;4953946;28;20046;-63
2022/03/17 05:36:17;;;;;;;16.17;7.43;;;9.10;99.90;;;;;;4936869;29;20047;-62
2022/03/17 05:38:43;;;;;;;19.00;8.05;;;9.00;99.90;;;;;;4951760;29;20125;-63
2022/03/17 05:41:08;;;;;;;17.65;8.40;;;9.10;99.90;;;;;;4934859;29;20039;-62
2022/03/17 05:43:34;;;;;;;13.32;6.38;;;9.00;99.90;;;;;;4934656;29;20574;-63
2022/03/17 05:46:00;;;;;;;23.05;7.95;;;8.90;99.90;;;;;;4968364;28;20556;-63
2022/03/17 05:48:25;;;;;;;21.98;7.43;;;8.90;99.90;;;;;;4970828;28;20039;-63
2022/03/17 05:50:51;;;;;;;18.27;6.93;;;8.90;99.90;;;;;;4951864;28;20557;-63
2022/03/17 05:53:16;;;;;;;16.95;7.15;;;9.00;99.90;;;;;;4939938;29;20043;-61
2022/03/17 05:55:42;;;;;;;24.35;7.70;;;9.00;99.90;;;;;;4949549;29;20044;-62
2022/03/17 05:58:08;;;;;;;17.40;6.70;;;;;;;;;;4934067;28;20043;-61
2022/03/17 06:00:35;;;;;;;15.30;6.55;;;8.90;99.90;;;;;;4950814;28;20137;-63
2022/03/17 06:03:01;;;;;;;13.57;6.20;;;8.80;99.90;;;;;;4953703;28;20051;-63
2022/03/17 06:05:28;;;;;;;15.05;6.22;;;8.70;99.90;;;;;;4953637;28;20050;-63
2022/03/17 06:07:59;;;;;;;12.57;5.88;;;8.70;99.90;;;;;;4953756;28;20043;-62
2022/03/17 06:10:27;;;;;;;14.32;6.45;;;9.00;99.90;;;;;;4954231;28;20384;-62
2022/03/17 06:12:53;;;;;;;16.35;5.88;;;8.70;99.90;;;;;;4956087;28;20097;-62
2022/03/17 06:15:20;;;;;;;15.25;4.90;;;8.90;99.90;;;;;;4939410;28;20133;-63
2022/03/17 06:17:57;;;;;;;11.52;5.10;;;8.60;99.90;;;;;;4941833;28;20050;-64
2022/03/17 06:20:26;;;;;;;12.82;5.10;;;8.70;99.90;;;;;;4951368;28;20446;-62
2022/03/17 06:22:53;;;;;;;13.88;4.30;;;8.90;99.90;;;;;;4956212;28;20036;-62
2022/03/17 06:25:21;;;;;;;11.55;4.05;;;8.70;99.90;;;;;;4952580;28;20043;-62
2022/03/17 06:27:48;;;;;;;12.05;3.97;;;8.70;99.90;;;;;;4952654;28;20122;-62
2022/03/17 06:30:19;;;;;;;11.13;3.88;;;8.70;99.90;;;;;;4954042;28;20519;-62
2022/03/17 06:32:45;;;;;;;15.82;3.28;;;8.80;99.90;;;;;;4935293;28;20047;-62
2022/03/17 06:35:17;;;;;;;9.30;2.95;;;8.70;99.90;;;;;;4952741;28;20036;-62
2022/03/17 06:37:51;;;;;;;16.67;3.15;;;8.80;99.90;;;;;;4955621;28;20097;-62
2022/03/17 06:40:17;;;;;;;10.23;3.42;;;8.70;99.90;;;;;;4936668;29;20122;-62
2022/03/17 06:42:44;;;;;;;9.75;3.17;;;8.80;99.90;;;;;;4953329;28;20039;-62
2022/03/17 06:45:10;;;;;;;16.20;3.65;;;8.70;99.90;;;;;;4955029;28;20028;-62
2022/03/17 06:47:38;;;;;;;11.93;3.00;;;8.80;99.90;;;;;;4935867;28;20374;-62
2022/03/17 06:50:04;;;;;;;10.35;2.20;;;8.80;99.90;;;;;;4953154;28;20039;-61
2022/03/17 06:52:30;;;;;;;8.50;2.67;;;8.60;99.90;;;;;;4953690;28;20043;-61
2022/03/17 06:54:55;;;;;;;12.20;2.53;;;8.70;99.90;;;;;;4936481;29;20047;-61
2022/03/17 06:57:22;;;;;;;11.32;2.58;;;8.70;99.90;;;;;;4962131;28;20047;-61
2022/03/17 06:59:49;;;;;;;12.02;3.35;;;8.70;99.90;;;;;;4977894;28;20051;-61
2022/03/17 07:02:15;;;;;;;8.43;2.38;;;;;;;;;;5003391;28;20043;-62
2022/03/17 07:04:41;;;;;;;15.45;3.10;;;;;;;;;;5018354;28;20049;-62
2022/03/17 07:07:07;;;;;;;10.45;2.00;;;8.60;99.90;;;;;;4977209;28;20117;-62
2022/03/17 07:09:34;;;;;;;9.50;1.92;;;;;;;;;;4985411;28;20535;-62
2022/03/17 07:12:00;;;;;;;8.82;1.70;;;;;;;;;;5004226;28;20174;-62
2022/03/17 07:14:25;;;;;;;4.85;1.73;;;8.70;99.90;;;;;;5005407;28;20043;-62
2022/03/17 07:16:51;;;;;;;10.68;2.75;;;8.80;99.90;;;;;;4989234;28;20045;-62
2022/03/17 07:19:17;;;;;;;8.18;2.50;;;8.90;99.90;;;;;;5009703;28;20049;-62
2022/03/17 07:21:43;;;;;;;13.23;2.22;;;;;;;;;;4988583;28;20151;-62
2022/03/17 07:24:09;;;;;;;10.68;2.72;;;;;;;;;;5025102;28;20138;-62
2022/03/17 07:26:35;;;;;;;11.07;2.05;;;8.80;99.90;;;;;;4988899;28;20044;-62
2022/03/17 07:29:02;;;;;;;10.38;2.13;;;;;;;;;;4988764;28;20052;-62
2022/03/17 07:31:28;;;;;;;8.05;2.63;;;8.90;99.90;;;;;;5003792;28;20056;-62
2022/03/17 07:33:54;;;;;;;7.30;1.60;;;;;;;;;;5003790;28;20066;-62
2022/03/17 07:36:21;;;;;;;16.80;2.90;;;;;;;;;;5007060;28;20137;-62
2022/03/17 07:38:47;;;;;;;10.95;2.08;;;;;;;;;;5001114;28;20104;-62
2022/03/17 07:41:14;;;;;;;12.32;2.20;;;8.70;99.90;;;;;;4990504;28;20054;-62
2022/03/17 07:43:41;;;;;;;8.15;2.47;;;8.70;99.90;;;;;;4987279;28;20131;-62
2022/03/17 07:46:07;;;;;;;14.85;2.45;;;;;;;;;;5009567;28;20520;-62
2022/03/17 07:48:33;;;;;;;13.07;2.30;;;;;;;;;;5004953;28;20048;-62
2022/03/17 07:50:59;;;;;;;12.45;2.20;;;8.50;99.90;;;;;;5000011;28;20056;-62
2022/03/17 07:53:24;;;;;;;11.95;2.75;;;8.60;99.90;;;;;;4996615;28;20051;-62
2022/03/17 07:55:54;;;;;;;9.73;2.33;;;;;;;;;;4999935;28;20055;-62
2022/03/17 07:58:21;;;;;;;14.32;2.60;;;8.60;99.90;;;;;;5006197;28;20054;-62
2022/03/17 08:00:47;;;;;;;14.75;2.58;;;;;;;;;;4988678;28;20112;-62
2022/03/17 08:03:13;;;;;;;12.60;3.13;;;;;;;;;;5005789;28;20548;-62
2022/03/17 08:05:39;;;;;;;12.07;2.20;;;;;;;;;;4986763;28;20043;-62
2022/03/17 08:08:05;;;;;;;17.90;2.50;;;;;;;;;;5007682;28;20608;-62
2022/03/17 08:10:31;;;;;;;20.13;3.40;;;;;;;;;;5009584;28;20056;-62
2022/03/17 08:12:58;;;;;;;19.48;3.42;;;;;;;;;;5007758;28;20159;-62
2022/03/17 08:15:26;;;;;;;7.10;2.13;;;;;;;;;;5013867;28;20634;-62
2022/03/17 08:17:52;;;;;;;14.63;3.72;;;;;;;;;;4987379;28;20697;-62
2022/03/17 08:20:19;;;;;;;11.02;2.25;;;;;;;;;;5003733;28;20058;-62
2022/03/17 08:22:51;;;;;;;8.15;2.35;;;8.40;99.90;;;;;;4988423;28;20136;-62
2022/03/17 08:25:17;;;;;;;13.57;2.40;;;8.50;99.90;;;;;;5001601;28;20040;-62
2022/03/17 08:27:43;;;;;;;15.40;2.53;;;;;;;;;;5003197;28;20051;-62
2022/03/17 08:30:10;;;;;;;17.05;2.95;;;9.40;99.90;;;;;;5010737;28;20550;-63
2022/03/17 08:32:36;;;;;;;13.27;2.42;;;;;;;;;;4999569;28;20037;-62
2022/03/17 08:35:02;;;;;;;13.88;2.35;;;;;;;;;;5006254;28;20109;-61
2022/03/17 08:37:29;;;;;;;11.27;2.50;;;;;;;;;;5011819;28;20383;-62
2022/03/17 08:39:54;;;;;;;16.05;2.38;;;8.40;99.90;;;;;;4997910;28;20192;-62
2022/03/17 08:42:20;;;;;;;12.05;2.10;;;8.30;99.90;;;;;;4998989;28;20043;-60
2022/03/17 08:44:46;;;;;;;13.15;2.72;;;;;;;;;;4984908;28;20045;-62
2022/03/17 08:49:56;;;;;;;11.13;2.30;;;;;;;;;;4975667;28;20052;-62
2022/03/17 08:52:22;;;;;;;9.88;1.92;;;;;;;;;;4977630;28;20047;-61
2022/03/17 08:54:48;;;;;;;16.40;3.15;;;;;;;;;;4983091;28;20416;-61
2022/03/17 08:57:15;;;;;;;11.18;2.58;;;;;;;;;;5001890;28;20040;-61
2022/03/17 08:59:41;;;;;;;16.73;2.78;;;8.80;99.90;;;;;;4988852;28;20548;-61
2022/03/17 09:02:10;;;;;;;14.63;2.60;;;8.80;99.90;;;;;;5000130;28;20617;-63
2022/03/17 09:04:36;;;;;;;11.43;2.33;;;;;;;;;;5000302;28;20492;-63
2022/03/17 09:07:03;;;;;;;14.10;3.20;;;;;;;;;;4996622;28;20054;-62
2022/03/17 09:09:29;;;;;;;9.63;2.45;;;8.40;99.90;;;;;;4964501;28;20061;-60
2022/03/17 09:11:56;;;;;;;12.32;3.05;;;;;;;;;;5003304;28;20073;-60
2022/03/17 09:14:22;;;;;;;9.85;2.10;;;8.50;99.90;;;;;;5002007;28;20076;-62
2022/03/17 09:16:48;;;;;;;11.68;2.63;;;;;;;;;;5004565;28;20040;-58
2022/03/17 09:19:15;;;;;;;17.50;2.55;;;;;;;;;;4978898;28;20179;-59
2022/03/17 09:21:41;;;;;;;15.43;3.13;;;;;;;;;;4965151;28;20138;-62
2022/03/17 09:24:06;;;;;;;12.90;2.75;;;9.40;99.90;;;;;;4978484;28;20047;-63
2022/03/17 09:26:32;;;;;;;12.25;3.35;;;;;;;;;;5000174;28;20051;-62
2022/03/17 09:28:59;;;;;;;11.77;2.65;;;9.40;99.90;;;;;;4986329;28;20286;-59
2022/03/17 09:31:25;;;;;;;19.77;3.58;;;;;;;;;;4993736;28;20537;-61
2022/03/17 09:33:51;;;;;;;19.88;3.22;;;9.70;99.90;;;;;;4981330;28;20069;-63
2022/03/17 09:36:17;;;;;;;11.52;2.88;;;;;;;;;;4982188;28;20056;-62
2022/03/17 09:38:43;;;;;;;12.98;2.60;;;9.60;99.90;;;;;;5003126;28;20531;-60
2022/03/17 09:41:25;;;;;;;8.77;2.78;;;;;;;;;;5008965;28;20045;-62
2022/03/17 09:43:52;;;;;;;9.27;2.40;;;10.70;99.90;;;;;;4992267;28;20514;-62
2022/03/17 09:46:21;;;;;;;8.32;1.92;;;9.90;99.90;;;;;;4987989;28;20092;-63
2022/03/17 09:48:48;;;;;;;9.65;2.28;;;11.80;99.90;;;;;;4993512;28;20444;-63
2022/03/17 09:51:15;;;;;;;9.90;1.90;;;13.10;99.90;;;;;;4986218;28;20041;-64
2022/03/17 09:53:40;;;;;;;11.13;2.03;;;13.80;99.90;;;;;;4990725;28;20048;-62
2022/03/17 09:56:06;;;;;;;8.65;1.42;;;13.10;99.90;;;;;;5006221;28;20045;-64
2022/03/17 09:58:31;;;;;;;8.05;2.08;;;12.80;99.90;;;;;;4981093;28;20040;-62
2022/03/17 10:00:59;;;;;;;9.48;2.00;;;12.70;99.90;;;;;;4984139;28;20044;-62
2022/03/17 10:03:28;;;;;;;9.00;2.65;;;14.70;99.90;;;;;;4967808;28;20534;-63
2022/03/17 10:05:57;;;;;;;8.90;2.20;;;14.80;99.90;;;;;;4989668;28;20598;-61
2022/03/17 10:08:23;;;;;;;10.27;1.90;;;16.90;99.90;;;;;;5001746;28;20050;-60
2022/03/17 10:10:51;;;;;;;9.25;2.20;;;18.50;99.90;;;;;;4982267;28;20788;-63
2022/03/17 10:13:19;;;;;;;7.68;1.90;;;19.20;99.90;;;;;;4992065;28;20257;-62
2022/03/17 10:15:47;;;;;;;8.15;2.42;;;19.60;99.90;;;;;;5005603;28;20040;-62
2022/03/17 10:18:30;;;;;;;7.60;2.15;;;20.10;99.90;;;;;;4987858;28;20580;-62
2022/03/17 10:21:26;;;;;;;7.38;2.25;;;20.40;99.90;;;;;;4981704;28;20066;-61
2022/03/17 10:23:54;;;;;;;11.02;3.15;;;18.00;99.90;;;;;;4996083;28;20394;-60
2022/03/17 10:26:46;;;;;;;9.70;1.98;;;17.80;99.90;;;;;;4998778;28;20617;-60
2022/03/17 10:29:19;;;;;;;8.88;1.55;;;17.10;99.90;;;;;;4981395;28;20059;-61
2022/03/17 10:32:00;;;;;;;9.20;1.95;;;16.40;99.90;;;;;;4983360;28;20598;-63
2022/03/17 10:34:29;;;;;;;7.88;1.90;;;15.90;99.90;;;;;;4969958;28;20055;-62
2022/03/17 10:37:16;;;;;;;11.20;2.22;;;15.20;99.90;;;;;;4983102;28;20788;-62
2022/03/17 10:39:44;;;;;;;13.60;2.40;;;15.30;99.90;;;;;;4970509;28;20069;-60
2022/03/17 10:42:12;;;;;;;16.08;2.40;;;14.90;99.90;;;;;;5002773;28;20514;-58
2022/03/17 10:44:45;;;;;;;11.27;2.30;;;14.50;99.90;;;;;;4986655;28;20050;-59
2022/03/17 10:47:11;;;;;;;6.88;1.75;;;14.30;99.90;;;;;;4980690;28;21138;-61
2022/03/17 10:49:37;;;;;;;21.15;2.65;;;13.90;99.90;;;;;;5009709;28;20555;-62
2022/03/17 10:52:03;;;;;;;7.97;2.67;;;13.60;99.90;;;;;;5001775;28;21290;-63
2022/03/17 10:54:29;;;;;;;11.77;1.90;;;13.40;99.90;;;;;;4988351;28;20052;-60
2022/03/17 10:57:09;;;;;;;9.93;2.45;;;13.10;99.90;;;;;;4989092;28;20145;-60
2022/03/17 10:59:43;;;;;;;12.35;3.30;;;13.00;99.90;;;;;;4996052;28;20784;-65
2022/03/17 11:02:11;;;;;;;8.98;1.75;;;13.10;99.90;;;;;;5005886;28;20097;-62
2022/03/17 11:04:38;;;;;;;9.00;2.00;;;13.10;99.90;;;;;;4996215;28;20564;-62
2022/03/17 11:07:13;;;;;;;13.82;2.78;;;13.20;99.90;;;;;;4995521;28;20044;-61
2022/03/17 11:09:40;;;;;;;7.82;1.52;;;13.40;99.90;;;;;;4984009;28;20052;-63
2022/03/17 11:12:12;;;;;;;11.93;2.65;;;13.50;99.90;;;;;;5007913;28;20044;-65
2022/03/17 11:14:43;;;;;;;8.63;2.03;;;13.60;99.90;;;;;;5013844;28;20545;-64
2022/03/17 11:17:11;;;;;;;12.45;2.60;;;13.80;99.90;;;;;;4988217;28;20124;-62
2022/03/17 11:19:37;;;;;;;7.78;1.60;;;13.60;99.90;;;;;;5007740;28;20185;-65
2022/03/17 11:22:05;;;;;;;8.75;2.00;;;13.60;99.90;;;;;;5002555;28;20677;-64
2022/03/17 11:24:31;;;;;;;14.65;2.58;;;13.60;99.90;;;;;;4991124;28;20508;-63
2022/03/17 11:27:13;;;;;;;7.97;1.73;;;13.40;99.90;;;;;;4996880;28;20445;-62
2022/03/17 11:29:49;;;;;;;10.70;2.10;;;13.10;99.90;;;;;;5009774;28;20114;-64
2022/03/17 11:32:29;;;;;;;7.15;1.67;;;12.90;99.90;;;;;;4991464;28;20059;-61
2022/03/17 11:35:16;;;;;;;6.40;1.77;;;12.90;99.90;;;;;;5002134;28;20065;-62
2022/03/17 11:37:41;;;;;;;9.68;2.60;;;12.90;99.90;;;;;;5011111;28;20041;-60
2022/03/17 11:40:19;;;;;;;7.40;2.30;;;12.70;99.90;;;;;;5008387;28;20416;-61
2022/03/17 11:43:08;;;;;;;14.43;2.58;;;12.80;99.90;;;;;;4994413;28;20448;-61
2022/03/17 11:45:37;;;;;;;13.25;2.50;;;12.80;99.90;;;;;;5011537;28;20056;-63
2022/03/17 11:48:08;;;;;;;6.65;2.03;;;12.80;99.90;;;;;;5014032;28;20400;-65
2022/03/17 11:50:33;;;;;;;8.85;2.05;;;12.80;99.90;;;;;;4989593;28;20050;-62
2022/03/17 11:53:03;;;;;;;7.65;2.45;;;12.90;99.90;;;;;;4986185;28;20057;-61
2022/03/17 11:55:41;;;;;;;9.85;2.30;;;13.00;99.90;;;;;;5006447;28;20036;-63
2022/03/17 11:58:16;;;;;;;11.82;2.20;;;13.20;99.90;;;;;;4982612;28;21067;-63
2022/03/17 12:00:53;;;;;;;10.93;1.90;;;13.30;99.90;;;;;;5007330;28;20286;-63
2022/03/17 12:03:37;;;;;;;9.63;2.10;;;13.10;99.90;;;;;;5004577;28;20060;-61
2022/03/17 12:06:08;;;;;;;8.40;2.50;;;12.90;99.90;;;;;;4988545;28;20074;-61
2022/03/17 12:08:58;;;;;;;9.80;2.58;;;13.00;99.90;;;;;;5004233;28;20131;-61
2022/03/17 12:11:26;;;;;;;7.07;2.25;;;13.00;99.90;;;;;;4998981;28;20043;-65
2022/03/17 12:14:11;;;;;;;5.60;1.58;;;13.10;99.90;;;;;;4997370;28;20027;-63
2022/03/17 12:16:40;;;;;;;7.40;1.83;;;12.90;99.90;;;;;;4997809;28;20079;-63
2022/03/17 12:19:06;;;;;;;9.00;1.70;;;12.80;99.90;;;;;;4992294;28;20055;-62
2022/03/17 12:22:03;;;;;;;8.75;1.73;;;12.90;99.90;;;;;;5006139;28;20076;-65
2022/03/17 12:24:39;;;;;;;8.02;2.05;;;12.60;99.90;;;;;;4986482;28;20178;-64
2022/03/17 12:27:15;;;;;;;10.48;2.17;;;12.60;99.90;;;;;;4984184;28;20046;-65
2022/03/17 12:29:41;;;;;;;9.23;2.13;;;12.60;99.90;;;;;;5000492;28;20059;-65
2022/03/17 12:32:10;;;;;;;10.02;2.20;;;12.50;99.90;;;;;;5008127;28;20177;-64
2022/03/17 12:34:37;;;;;;;9.23;2.42;;;12.60;99.90;;;;;;4994910;28;20043;-64
2022/03/17 12:37:04;;;;;;;12.95;2.03;;;12.80;99.90;;;;;;4979633;28;20147;-65
2022/03/17 12:39:32;;;;;;;11.88;2.08;;;12.90;99.90;;;;;;4994642;28;20044;-64
2022/03/17 12:41:59;;;;;;;11.95;2.45;;;13.00;99.90;;;;;;4980717;28;20055;-65
2022/03/17 12:44:26;;;;;;;8.68;2.58;;;12.90;99.90;;;;;;4997510;28;20061;-65
2022/03/17 12:46:53;;;;;;;9.00;2.33;;;12.80;99.90;;;;;;4998085;28;20148;-65
2022/03/17 12:49:19;;;;;;;10.73;2.72;;;12.80;99.90;;;;;;4999453;28;20052;-66
2022/03/17 12:51:46;;;;;;;8.93;2.25;;;12.90;99.90;;;;;;4992409;28;20062;-65
2022/03/17 12:54:15;;;;;;;9.35;2.05;;;12.90;99.90;;;;;;5000722;28;20109;-66
2022/03/17 12:56:51;;;;;;;9.02;3.35;;;12.90;99.90;;;;;;5008312;28;20048;-63
2022/03/17 12:59:19;;;;;;;7.22;1.73;;;13.10;99.90;;;;;;5002395;28;20138;-64
2022/03/17 13:01:46;;;;;;;9.43;2.05;;;13.10;99.90;;;;;;4999869;28;20054;-63
2022/03/17 13:04:13;;;;;;;7.80;2.22;;;13.00;99.90;;;;;;4972199;28;20466;-63
2022/03/17 13:06:54;;;;;;;11.10;2.15;;;13.10;99.90;;;;;;4994585;28;20054;-64
2022/03/17 13:09:40;;;;;;;9.35;2.05;;;13.00;99.90;;;;;;4984349;28;20443;-63
2022/03/17 13:14:55;;;;;;;10.95;2.55;;;13.00;99.90;;;;;;4982329;28;20580;-62
2022/03/17 13:17:39;;;;;;;7.82;2.08;;;13.10;99.90;;;;;;5003789;28;20037;-64